Time;durP1;ratioP1;P1;durP2;ratioP2;P2;SDS_P1;SDS_P2;PMS_P1;PMS_P2;Temp;Humidity;BMP_temperature;BMP_pressure;BME280_temperature;BME280_humidity;BME280_pressure;Samples;Min_cycle;Max_cycle;Signal;HPM_P1;HPM_P2
2022/05/31 00:01:40;;;;;;;26.92;16.08;;;;;;;;;;4896674;29;20064;-63
2022/05/31 00:04:06;;;;;;;29.10;16.50;;;;;;;;;;4896728;29;20095;-58
2022/05/31 00:06:33;;;;;;;28.88;15.90;;;;;;;;;;4896414;29;20048;-62
2022/05/31 00:08:59;;;;;;;29.48;16.80;;;;;;;;;;4896748;29;20068;-59
2022/05/31 00:11:25;;;;;;;25.90;16.00;;;;;;;;;;4896206;29;20084;-58
2022/05/31 00:13:52;;;;;;;27.38;16.27;;;;;;;;;;4895766;29;20032;-58
2022/05/31 00:16:18;;;;;;;29.15;16.17;;;;;;;;;;4896387;29;20051;-63
2022/05/31 00:18:44;;;;;;;26.42;15.57;;;;;;;;;;4896674;29;20059;-62
2022/05/31 00:21:10;;;;;;;26.05;14.90;;;;;;;;;;4896332;29;20112;-63
2022/05/31 00:23:39;;;;;;;25.77;15.27;;;;;;;;;;4896505;29;20157;-61
2022/05/31 00:26:05;;;;;;;29.52;16.73;;;;;;;;;;4896222;29;20079;-62
2022/05/31 00:28:31;;;;;;;27.92;15.80;;;;;;;;;;4896317;29;20168;-60
2022/05/31 00:30:57;;;;;;;28.60;16.05;;;;;;;;;;4896425;29;20037;-63
2022/05/31 00:33:24;;;;;;;26.98;16.13;;;;;;;;;;4896169;29;20119;-63
2022/05/31 00:35:51;;;;;;;29.33;16.33;;;;;;;;;;4896319;29;20027;-62
2022/05/31 00:38:18;;;;;;;24.08;15.85;;;;;;;;;;4896149;29;20035;-62
2022/05/31 00:40:44;;;;;;;26.52;15.20;;;;;;;;;;4896190;29;20032;-63
2022/05/31 00:43:13;;;;;;;22.50;15.30;;;;;;;;;;4896063;29;20028;-61
2022/05/31 00:45:59;;;;;;;27.08;15.32;;;;;;;;;;4896194;29;20484;-59
2022/05/31 00:48:27;;;;;;;24.75;15.35;;;;;;;;;;4895794;29;20108;-57
2022/05/31 00:51:00;;;;;;;27.70;15.60;;;;;;;;;;4896103;29;20048;-58
2022/05/31 00:53:28;;;;;;;26.98;15.82;;;;;;;;;;4895945;29;20070;-60
2022/05/31 00:55:57;;;;;;;26.40;15.80;;;;;;;;;;4896096;29;20115;-63
2022/05/31 00:58:31;;;;;;;26.55;15.70;;;;;;;;;;4895843;29;20029;-61
2022/05/31 01:00:59;;;;;;;26.20;15.45;;;;;;;;;;4895862;29;20461;-58
2022/05/31 01:03:25;;;;;;;30.80;17.45;;;;;;;;;;4895449;29;20029;-58
2022/05/31 01:05:51;;;;;;;26.80;16.52;;;;;;;;;;4895765;29;20036;-64
2022/05/31 01:08:17;;;;;;;27.13;16.23;;;;;;;;;;4895551;29;20067;-62
2022/05/31 01:10:43;;;;;;;29.13;17.30;;;;;;;;;;4895775;29;20508;-63
2022/05/31 01:13:15;;;;;;;27.02;16.77;;;;;;;;;;4895158;29;20073;-61
2022/05/31 01:15:42;;;;;;;28.40;16.77;;;;;;;;;;4895739;29;20048;-57
2022/05/31 01:18:08;;;;;;;27.20;16.67;;;;;;;;;;4895407;29;20048;-62
2022/05/31 01:20:34;;;;;;;30.67;17.40;;;;;;;;;;4895417;29;20461;-57
2022/05/31 01:23:04;;;;;;;31.77;16.60;;;;;;;;;;4895093;29;20021;-57
2022/05/31 01:25:39;;;;;;;25.52;16.35;;;;;;;;;;4895271;29;20381;-63
2022/05/31 01:28:10;;;;;;;26.17;16.98;;;;;;;;;;4895178;29;20752;-57
2022/05/31 01:31:01;;;;;;;31.63;17.08;;;;;;;;;;4895328;29;20041;-59
2022/05/31 01:33:31;;;;;;;28.25;16.52;;;;;;;;;;4895089;29;20112;-60
2022/05/31 01:36:20;;;;;;;26.85;17.25;;;;;;;;;;4895585;29;20024;-58
2022/05/31 01:39:04;;;;;;;27.63;15.93;;;;;;;;;;4800933;29;20518;-56
2022/05/31 01:41:37;;;;;;;27.73;15.95;;;;;;;;;;4800775;29;20042;-58
2022/05/31 01:44:05;;;;;;;32.72;17.27;;;;;;;;;;4801151;29;20047;-56
2022/05/31 01:46:33;;;;;;;26.67;16.10;;;;;;;;;;4800765;29;20027;-59
2022/05/31 01:49:01;;;;;;;28.60;16.42;;;;;;;;;;4800594;29;20154;-64
2022/05/31 01:51:27;;;;;;;28.50;17.38;;;;;;;;;;4800914;29;20762;-63
2022/05/31 01:53:54;;;;;;;26.83;16.88;;;;;;;;;;4801118;29;20038;-58
2022/05/31 01:56:21;;;;;;;27.45;17.70;;;;;;;;;;4800923;29;20377;-64
2022/05/31 01:58:48;;;;;;;28.00;17.27;;;;;;;;;;4800567;29;20030;-59
2022/05/31 02:01:14;;;;;;;29.70;17.73;;;;;;;;;;4801839;29;20127;-64
2022/05/31 02:03:41;;;;;;;33.17;19.05;;;;;;;;;;4803409;29;20042;-58
2022/05/31 02:06:23;;;;;;;29.52;17.55;;;;;;;;;;4802634;29;20042;-58
2022/05/31 02:08:49;;;;;;;30.45;18.23;;;;;;;;;;4800997;29;20078;-63
2022/05/31 02:11:15;;;;;;;27.42;17.38;;;;;;;;;;4800840;29;20059;-58
2022/05/31 02:13:41;;;;;;;29.95;18.08;;;;;;;;;;4800404;29;20047;-58
2022/05/31 02:16:07;;;;;;;30.30;18.50;;;;;;;;;;4862035;29;20548;-63
2022/05/31 02:21:18;;;;;;;30.45;18.05;;;;;;;;;;4895263;29;20424;-58
2022/05/31 02:23:44;;;;;;;32.45;17.48;;;;;;;;;;4895173;29;20052;-58
2022/05/31 02:26:10;;;;;;;32.83;18.05;;;;;;;;;;4895173;29;20051;-58
2022/05/31 02:28:36;;;;;;;32.90;19.33;;;;;;;;;;4895327;29;20759;-63
2022/05/31 02:31:02;;;;;;;32.10;17.58;;;;;;;;;;4895068;29;20469;-63
2022/05/31 02:33:28;;;;;;;28.27;18.33;;;;;;;;;;4895002;29;20064;-63
2022/05/31 02:35:54;;;;;;;29.83;17.40;;;;;;;;;;4895751;29;20806;-60
2022/05/31 02:38:20;;;;;;;29.77;17.50;;;;;;;;;;4898206;29;20033;-63
2022/05/31 02:40:46;;;;;;;30.17;17.77;;;;;;;;;;4898189;29;20064;-62
2022/05/31 02:43:12;;;;;;;27.10;16.80;;;;;;;;;;4897970;29;20044;-63
2022/05/31 02:45:38;;;;;;;29.60;17.65;;;;;;;;;;4898253;29;20035;-60
2022/05/31 02:48:04;;;;;;;33.83;16.48;;;;;;;;;;4898039;29;20064;-62
2022/05/31 02:50:30;;;;;;;30.60;16.67;;;;;;;;;;4897878;29;20046;-58
2022/05/31 02:52:56;;;;;;;29.70;17.63;;;;;;;;;;4897595;29;20415;-62
2022/05/31 02:55:23;;;;;;;26.58;17.20;;;;;;;;;;4898073;29;20025;-61
2022/05/31 02:57:49;;;;;;;25.58;16.25;;;;;;;;;;4897774;29;20025;-62
2022/05/31 03:00:15;;;;;;;32.80;17.20;;;;;;;;;;4880295;29;20824;-61
2022/05/31 03:02:41;;;;;;;26.35;16.58;;;;;;;;;;4897770;29;20028;-62
2022/05/31 03:05:07;;;;;;;34.08;17.85;;;;;;;;;;4897699;29;20035;-63
2022/05/31 03:07:33;;;;;;;31.67;18.67;;;;;;;;;;4897664;29;20077;-63
2022/05/31 03:10:00;;;;;;;30.98;18.67;;;;;;;;;;4897767;29;20047;-63
2022/05/31 03:12:27;;;;;;;27.92;17.27;;;;;;;;;;4880108;29;20405;-62
2022/05/31 03:14:56;;;;;;;27.70;18.33;;;;;;;;;;4897762;29;20032;-63
2022/05/31 03:17:26;;;;;;;31.63;18.95;;;;;;;;;;4897650;29;20033;-59
2022/05/31 03:20:04;;;;;;;32.83;18.17;;;;;;;;;;4897895;29;20060;-60
2022/05/31 03:22:33;;;;;;;30.60;17.95;;;;;;;;;;4897480;29;20082;-58
2022/05/31 03:25:02;;;;;;;37.13;18.77;;;;;;;;;;4897653;29;20025;-62
2022/05/31 03:27:28;;;;;;;38.00;19.00;;;;;;;;;;4897670;29;20077;-60
2022/05/31 03:29:56;;;;;;;32.17;17.88;;;;;;;;;;4897517;29;20085;-63
2022/05/31 03:32:22;;;;;;;33.53;17.83;;;;;;;;;;4897610;29;20029;-57
2022/05/31 03:34:49;;;;;;;27.52;17.27;;;;;;;;;;4897354;29;20066;-62
2022/05/31 03:37:15;;;;;;;28.13;17.58;;;;;;;;;;4897290;29;20563;-63
2022/05/31 03:39:41;;;;;;;29.77;17.65;;;;;;;;;;4897444;29;20044;-62
2022/05/31 03:42:07;;;;;;;31.15;18.42;;;;;;;;;;4897244;29;20036;-63
2022/05/31 03:44:34;;;;;;;31.98;18.33;;;;;;;;;;4897454;29;20385;-61
2022/05/31 03:47:02;;;;;;;35.78;19.33;;;;;;;;;;4896646;29;20032;-63
2022/05/31 03:49:28;;;;;;;32.92;18.67;;;;;;;;;;4896863;29;20071;-62
2022/05/31 03:51:54;;;;;;;34.85;20.60;;;;;;;;;;4897066;29;20478;-63
2022/05/31 03:54:20;;;;;;;37.70;20.88;;;;;;;;;;4897256;29;20024;-62
2022/05/31 03:56:46;;;;;;;36.20;20.65;;;;;;;;;;4896909;29;20044;-62
2022/05/31 03:59:12;;;;;;;37.72;20.45;;;;;;;;;;4897199;29;20084;-58
2022/05/31 04:01:38;;;;;;;34.67;19.27;;;;;;;;;;4896863;29;20400;-58
2022/05/31 04:04:04;;;;;;;33.20;20.13;;;;;;;;;;4896846;29;20831;-58
2022/05/31 04:06:31;;;;;;;38.05;20.77;;;;;;;;;;4896524;29;20063;-58
2022/05/31 04:08:57;;;;;;;35.50;19.67;;;;;;;;;;4896382;29;20395;-63
2022/05/31 04:11:24;;;;;;;40.70;21.83;;;;;;;;;;4896112;29;20040;-58
2022/05/31 04:13:50;;;;;;;34.63;20.48;;;;;;;;;;4896431;29;20067;-57
2022/05/31 04:16:17;;;;;;;38.13;21.48;;;;;;;;;;4896361;29;20080;-58
2022/05/31 04:18:43;;;;;;;39.15;21.75;;;;;;;;;;4896427;29;20437;-58
2022/05/31 04:21:11;;;;;;;37.03;22.10;;;;;;;;;;4896307;29;20035;-62
2022/05/31 04:26:22;;;;;;;36.03;20.17;;;;;;;;;;4896158;29;20063;-58
2022/05/31 04:28:48;;;;;;;42.28;22.20;;;;;;;;;;4896062;29;20072;-59
2022/05/31 04:31:14;;;;;;;39.17;22.40;;;;;;;;;;4896039;29;20033;-63
2022/05/31 04:33:40;;;;;;;40.03;22.92;;;;;;;;;;4896370;29;20033;-63
2022/05/31 04:36:08;;;;;;;40.53;22.55;;;;;;;;;;4896262;29;20479;-62
2022/05/31 04:38:35;;;;;;;40.78;22.15;;;;;;;;;;4896266;29;20035;-59
2022/05/31 04:41:01;;;;;;;39.40;22.52;;;;;;;;;;4895926;29;20044;-58
2022/05/31 04:43:28;;;;;;;36.33;21.88;;;;;;;;;;4895702;29;20021;-60
2022/05/31 04:45:54;;;;;;;43.25;21.70;;;;;;;;;;4891736;29;20032;-58
2022/05/31 04:48:20;;;;;;;44.22;22.00;;;;;;;;;;4885292;29;20052;-58
2022/05/31 04:50:46;;;;;;;36.50;19.95;;;;;;;;;;4884569;29;20040;-61
2022/05/31 04:53:12;;;;;;;36.53;22.33;;;;;;;;;;4885982;29;20423;-60
2022/05/31 04:55:38;;;;;;;37.85;22.30;;;;;;;;;;4883938;29;20097;-62
2022/05/31 04:58:04;;;;;;;37.20;21.90;;;;;;;;;;4876968;29;20073;-58
2022/05/31 05:00:30;;;;;;;35.00;21.48;;;;;;;;;;4876611;29;20052;-59
2022/05/31 05:02:56;;;;;;;35.58;21.25;;;;;;;;;;4877258;29;20484;-63
2022/05/31 05:05:22;;;;;;;40.22;22.33;;;;;;;;;;4882314;29;20028;-58
2022/05/31 05:07:49;;;;;;;43.83;24.13;;;;;;;;;;4884735;29;20071;-62
2022/05/31 05:10:17;;;;;;;41.90;22.73;;;;;;;;;;4877005;29;20397;-58
2022/05/31 05:12:43;;;;;;;45.78;23.85;;;;;;;;;;4876567;29;20076;-58
2022/05/31 05:15:09;;;;;;;42.80;23.15;;;;;;;;;;4876939;29;20678;-61
2022/05/31 05:17:35;;;;;;;40.38;23.45;;;;;;;;;;4877012;29;20548;-59
2022/05/31 05:20:01;;;;;;;41.83;24.45;;;;;;;;;;4876520;29;20041;-58
2022/05/31 05:22:30;;;;;;;41.83;23.85;;;;;;;;;;4876673;29;20043;-60
2022/05/31 05:24:56;;;;;;;45.17;24.02;;;;;;;;;;4876529;29;20032;-57
2022/05/31 05:27:22;;;;;;;43.70;24.10;;;;;;;;;;4876634;29;20061;-58
2022/05/31 05:32:32;;;;;;;40.33;22.88;;;;;;;;;;4876383;29;20043;-58
2022/05/31 05:34:58;;;;;;;46.22;25.13;;;;;;;;;;4876437;29;20041;-60
2022/05/31 05:37:25;;;;;;;39.50;22.80;;;;;;;;;;4876567;29;20528;-58
2022/05/31 05:39:52;;;;;;;40.92;23.33;;;;;;;;;;4876425;29;20037;-58
2022/05/31 05:42:18;;;;;;;41.38;23.17;;;;;;;;;;4876245;29;20033;-59
2022/05/31 05:44:44;;;;;;;43.03;24.05;;;;;;;;;;4876540;29;20504;-61
2022/05/31 05:47:14;;;;;;;45.55;24.15;;;;;;;;;;4876518;29;20041;-58
2022/05/31 05:49:40;;;;;;;41.15;22.30;;;;;;;;;;4876469;29;20033;-58
2022/05/31 05:52:09;;;;;;;40.75;24.02;;;;;;;;;;4876315;29;20039;-60
2022/05/31 05:54:35;;;;;;;42.97;23.55;;;;;;;;;;4876294;29;20100;-60
2022/05/31 05:57:01;;;;;;;43.17;23.88;;;;;;;;;;4876419;29;20025;-58
2022/05/31 05:59:27;;;;;;;39.97;22.80;;;;;;;;;;4876050;29;20021;-58
2022/05/31 06:01:56;;;;;;;42.72;24.08;;;;;;;;;;4876332;29;20112;-61
2022/05/31 06:04:30;;;;;;;39.90;23.20;;;;;;;;;;4876427;29;20389;-60
2022/05/31 06:07:19;;;;;;;40.63;23.58;;;;;;;;;;4876262;29;20103;-61
2022/05/31 06:09:52;;;;;;;43.22;23.55;;;;;;;;;;4782341;29;20109;-58
2022/05/31 06:12:23;;;;;;;40.13;23.25;;;;;;;;;;4784920;30;20062;-60
2022/05/31 06:14:52;;;;;;;38.60;22.45;;;;;;;;;;4785811;30;20048;-58
2022/05/31 06:17:22;;;;;;;37.83;21.42;;;;;;;;;;4785859;30;20032;-60
2022/05/31 06:19:49;;;;;;;37.90;21.42;;;;;;;;;;4785950;30;20472;-59
2022/05/31 06:22:15;;;;;;;40.78;22.90;;;;;;;;;;4785760;30;20043;-58
2022/05/31 06:24:42;;;;;;;39.50;22.88;;;;;;;;;;4785542;30;20036;-59
2022/05/31 06:27:08;;;;;;;38.08;21.80;;;;;;;;;;4785538;30;20039;-58
2022/05/31 06:29:34;;;;;;;39.75;21.92;;;;;;;;;;4785644;29;20118;-62
2022/05/31 06:32:00;;;;;;;43.05;22.60;;;;;;;;;;4793933;29;20031;-59
2022/05/31 06:34:27;;;;;;;41.13;22.23;;;;;;;;;;4790165;29;20112;-59
2022/05/31 06:37:06;;;;;;;42.47;21.77;;;;;;;;;;4784993;30;20028;-61
2022/05/31 06:39:33;;;;;;;38.20;19.17;;;;;;;;;;4785192;30;20069;-61
2022/05/31 06:41:59;;;;;;;38.88;20.00;;;;;;;;;;4785382;30;20425;-61
2022/05/31 06:44:26;;;;;;;36.88;19.88;;;;;;;;;;4785367;30;20492;-60
2022/05/31 06:46:52;;;;;;;34.40;18.45;;;;;;;;;;4819823;29;20124;-61
2022/05/31 06:49:18;;;;;;;36.05;18.20;;;;;;;;;;4879079;29;20366;-60
2022/05/31 06:57:14;;;;;;;26.70;14.70;;;;;;;;;;4879187;29;20036;-62
2022/05/31 06:59:40;;;;;;;32.80;18.08;;;;;;;;;;4878777;29;20036;-62
2022/05/31 07:02:06;;;;;;;32.97;18.77;;;;;;;;;;4878750;29;20124;-61
2022/05/31 07:04:33;;;;;;;33.95;17.95;;;;;;;;;;4878836;29;20035;-62
2022/05/31 07:06:59;;;;;;;38.00;19.05;;;;;;;;;;4878412;29;20036;-62
2022/05/31 07:09:25;;;;;;;32.38;17.25;;;;;;;;;;4878706;29;20057;-61
2022/05/31 07:11:51;;;;;;;33.17;18.80;;;;;;;;;;4877926;29;20481;-62
2022/05/31 07:14:17;;;;;;;33.38;17.77;;;;;;;;;;4878367;29;20736;-63
2022/05/31 07:16:43;;;;;;;31.85;17.50;;;;;;;;;;4878759;29;20029;-62
2022/05/31 07:19:09;;;;;;;30.70;16.92;;;;;;;;;;4878587;29;20024;-59
2022/05/31 07:21:35;;;;;;;29.13;16.73;;;;;;;;;;4878191;29;20124;-62
2022/05/31 07:24:01;;;;;;;34.58;17.40;;;;;;;;;;4878081;29;20049;-62
2022/05/31 07:26:27;;;;;;;28.65;17.42;;;;;;;;;;4878753;29;20036;-61
2022/05/31 07:28:55;;;;;;;30.77;16.38;;;;;;;;;;4878764;29;20053;-63
2022/05/31 07:31:21;;;;;;;30.98;17.48;;;;;;;;;;4878648;29;20025;-64
2022/05/31 07:33:48;;;;;;;28.67;16.88;;;;;;;;;;4878928;29;20108;-61
2022/05/31 07:36:14;;;;;;;29.05;16.52;;;;;;;;;;4878729;29;20073;-60
2022/05/31 07:38:41;;;;;;;32.08;16.63;;;;;;;;;;4878242;29;20048;-62
2022/05/31 07:41:08;;;;;;;28.67;16.33;;;;;;;;;;4880913;29;20127;-61
2022/05/31 07:43:34;;;;;;;33.08;15.75;;;;;;;;;;4886106;29;20117;-63
2022/05/31 07:46:03;;;;;;;31.00;16.30;;;;;;;;;;4889351;29;20512;-62
2022/05/31 07:48:29;;;;;;;31.95;17.02;;;;;;;;;;4897477;29;20111;-62
2022/05/31 07:50:55;;;;;;;54.67;17.88;;;;;;;;;;4889753;29;20086;-64
2022/05/31 07:53:21;;;;;;;33.95;16.02;;;;;;;;;;4876001;29;20096;-62
2022/05/31 07:55:57;;;;;;;34.95;17.17;;;;;;;;;;4882851;29;20040;-61
2022/05/31 07:58:33;;;;;;;37.20;17.52;;;;;;;;;;4897250;29;20044;-63
2022/05/31 08:01:01;;;;;;;39.03;18.38;;;;;;;;;;4896686;29;20028;-69
2022/05/31 08:03:27;;;;;;;39.17;17.73;;;;;;;;;;4897074;29;20084;-65
2022/05/31 08:05:53;;;;;;;33.50;17.40;;;;;;;;;;4896134;29;20058;-66
2022/05/31 08:08:20;;;;;;;31.88;17.95;;;;;;;;;;4896612;29;20031;-65
2022/05/31 08:10:46;;;;;;;39.28;19.65;;;;;;;;;;4897021;29;20036;-61
2022/05/31 08:13:12;;;;;;;38.58;19.30;;;;;;;;;;4896503;29;20457;-61
2022/05/31 08:15:38;;;;;;;40.80;19.88;;;;;;;;;;4896959;29;20506;-64
2022/05/31 08:18:04;;;;;;;42.42;19.08;;;;;;;;;;4897173;29;20457;-66
2022/05/31 08:20:30;;;;;;;44.38;19.85;;;;;;;;;;4896510;29;20040;-68
2022/05/31 08:22:56;;;;;;;38.88;19.02;;;;;;;;;;4896416;29;20052;-67
2022/05/31 08:25:23;;;;;;;38.30;18.58;;;;;;;;;;4896752;29;20024;-63
2022/05/31 08:27:50;;;;;;;33.95;18.33;;;;;;;;;;4896586;29;20038;-60
2022/05/31 08:30:16;;;;;;;36.60;18.30;;;;;;;;;;4896352;29;20445;-60
2022/05/31 08:32:43;;;;;;;33.33;18.63;;;;;;;;;;4895872;29;20401;-65
2022/05/31 08:35:09;;;;;;;37.85;19.75;;;;;;;;;;4879210;29;20383;-63
2022/05/31 08:37:35;;;;;;;32.97;16.65;;;;;;;;;;4896350;29;20025;-62
2022/05/31 08:40:01;;;;;;;38.03;19.27;;;;;;;;;;4896393;29;20491;-63
2022/05/31 08:42:48;;;;;;;45.72;20.80;;;;;;;;;;4879146;29;20111;-62
2022/05/31 08:45:23;;;;;;;35.65;20.38;;;;;;;;;;4879485;29;20040;-63
2022/05/31 08:48:02;;;;;;;45.38;19.33;;;;;;;;;;4896152;29;20040;-60
2022/05/31 08:53:19;;;;;;;43.00;20.50;;;;;;;;;;4896840;29;20059;-64
2022/05/31 08:58:48;;;;;;;34.38;19.50;;;;;;;;;;4895509;29;20084;-63
2022/05/31 09:01:19;;;;;;;39.75;19.45;;;;;;;;;;4885870;29;20127;-62
2022/05/31 09:04:00;;;;;;;33.63;19.38;;;;;;;;;;4885497;29;20025;-64
2022/05/31 09:06:29;;;;;;;36.53;19.65;;;;;;;;;;4885524;29;20111;-61
2022/05/31 09:08:55;;;;;;;32.15;18.42;;;;;;;;;;4885219;29;20096;-63
2022/05/31 09:11:26;;;;;;;33.75;18.20;;;;;;;;;;4884914;29;20512;-59
2022/05/31 09:14:09;;;;;;;35.63;20.13;;;;;;;;;;4886239;29;20033;-65
2022/05/31 09:16:47;;;;;;;31.08;19.20;;;;;;;;;;4887099;29;20103;-64
2022/05/31 09:19:21;;;;;;;36.08;20.58;;;;;;;;;;4896820;29;20028;-62
2022/05/31 09:21:48;;;;;;;34.42;20.70;;;;;;;;;;4873244;29;20068;-61
2022/05/31 09:24:16;;;;;;;38.80;21.25;;;;;;;;;;4886233;29;20033;-64
2022/05/31 09:27:01;;;;;;;42.65;22.80;;;;;;;;;;4886693;29;20033;-63
2022/05/31 09:29:31;;;;;;;38.95;21.33;;;;;;;;;;4886793;29;20033;-64
2022/05/31 09:32:16;;;;;;;39.25;21.73;;;;;;;;;;4885352;29;20264;-61
2022/05/31 09:34:48;;;;;;;40.90;21.75;;;;;;;;;;4887200;29;20040;-63
2022/05/31 09:37:29;;;;;;;37.95;22.60;;;;;;;;;;4885191;29;20510;-61
2022/05/31 09:40:11;;;;;;;40.15;21.50;;;;;;;;;;4884719;29;20033;-63
2022/05/31 09:42:40;;;;;;;44.13;22.65;;;;;;;;;;4884006;29;20108;-62
2022/05/31 09:45:12;;;;;;;34.63;19.85;;;;;;;;;;4887835;29;20048;-61
2022/05/31 09:47:38;;;;;;;39.17;21.52;;;;;;;;;;4894334;29;20332;-61
2022/05/31 09:50:05;;;;;;;40.88;22.55;;;;;;;;;;4891123;29;20067;-61
2022/05/31 09:52:42;;;;;;;37.53;21.17;;;;;;;;;;4894235;29;20021;-60
2022/05/31 09:58:02;;;;;;;;;;;;;;;;;;4894370;29;20508;-64
2022/05/31 10:00:29;;;;;;;33.85;18.50;;;;;;;;;;4899356;29;19939;-62
2022/05/31 10:03:02;;;;;;;31.98;17.80;;;;;;;;;;4890284;29;20093;-62
2022/05/31 10:05:28;;;;;;;38.50;20.70;;;;;;;;;;4888001;29;20020;-61
2022/05/31 10:07:54;;;;;;;38.28;20.50;;;;;;;;;;4886985;29;20060;-62
2022/05/31 10:10:29;;;;;;;36.42;20.45;;;;;;;;;;4889308;29;20032;-61
2022/05/31 10:12:57;;;;;;;36.33;20.67;;;;;;;;;;4884656;29;20379;-63
2022/05/31 10:15:34;;;;;;;37.08;20.25;;;;;;;;;;4887505;29;20444;-62
2022/05/31 10:18:05;;;;;;;36.22;18.42;;;;;;;;;;4888883;29;20039;-59
2022/05/31 10:20:31;;;;;;;34.38;19.10;;;;;;;;;;4887661;29;20136;-62
2022/05/31 10:22:57;;;;;;;36.28;20.27;;;;;;;;;;4888077;29;20503;-63
2022/05/31 10:25:41;;;;;;;39.63;20.50;;;;;;;;;;4889369;29;20115;-63
2022/05/31 10:28:12;;;;;;;32.78;18.45;;;;;;;;;;4882561;29;20377;-63
2022/05/31 10:30:39;;;;;;;33.80;20.05;;;;;;;;;;4879839;29;20385;-64
2022/05/31 10:33:08;;;;;;;32.10;16.77;;;;;;;;;;4879635;29;20040;-64
2022/05/31 10:35:44;;;;;;;30.33;17.50;;;;;;;;;;4880014;29;20757;-62
2022/05/31 10:38:16;;;;;;;33.60;17.73;;;;;;;;;;4879748;29;20044;-63
2022/05/31 10:40:43;;;;;;;29.85;17.83;;;;;;;;;;4888744;29;20047;-63
2022/05/31 10:43:30;;;;;;;29.30;18.15;;;;;;;;;;4887898;29;20351;-61
2022/05/31 10:45:56;;;;;;;30.98;19.17;;;;;;;;;;4819659;29;20053;-62
2022/05/31 10:48:22;;;;;;;31.42;17.92;;;;;;;;;;4822340;29;20056;-63
2022/05/31 10:51:04;;;;;;;32.65;19.13;;;;;;;;;;4821590;29;20076;-63
2022/05/31 10:53:36;;;;;;;27.73;17.52;;;;;;;;;;4821201;29;20018;-63
2022/05/31 10:56:09;;;;;;;28.85;15.80;;;;;;;;;;4818847;29;20072;-66
2022/05/31 10:58:42;;;;;;;28.45;16.13;;;;;;;;;;4820361;29;20026;-63
2022/05/31 11:01:18;;;;;;;30.85;18.65;;;;;;;;;;4820254;29;20410;-63
2022/05/31 11:04:19;;;;;;;30.67;18.00;;;;;;;;;;4803900;29;20031;-63
2022/05/31 11:06:45;;;;;;;30.10;18.27;;;;;;;;;;4760308;30;20453;-63
2022/05/31 11:11:58;;;;;;;28.45;17.42;;;;;;;;;;4757615;30;20066;-63
2022/05/31 11:14:36;;;;;;;27.50;16.67;;;;;;;;;;4756458;30;20044;-63
2022/05/31 11:17:12;;;;;;;29.20;16.70;;;;;;;;;;4738642;30;20106;-63
2022/05/31 11:19:43;;;;;;;33.70;17.80;;;;;;;;;;4751650;30;20538;-62
2022/05/31 11:22:09;;;;;;;31.37;17.20;;;;;;;;;;4761542;29;20377;-64
2022/05/31 11:24:54;;;;;;;27.30;16.98;;;;;;;;;;4814431;29;20038;-65
2022/05/31 11:27:23;;;;;;;31.83;17.20;;;;;;;;;;4814963;29;20495;-63
2022/05/31 11:29:56;;;;;;;27.48;17.23;;;;;;;;;;4805098;29;20145;-65
2022/05/31 11:32:45;;;;;;;27.70;16.92;;;;;;;;;;4802858;29;20030;-62
2022/05/31 11:35:23;;;;;;;26.80;16.65;;;;;;;;;;4805173;29;20047;-62
2022/05/31 11:38:02;;;;;;;29.65;16.25;;;;;;;;;;4805177;29;20509;-64
2022/05/31 11:40:32;;;;;;;29.67;16.65;;;;;;;;;;4835563;29;20056;-65
2022/05/31 11:43:07;;;;;;;24.05;15.75;;;;;;;;;;4859969;29;20041;-62
2022/05/31 11:45:42;;;;;;;24.83;14.90;;;;;;;;;;4859853;29;20033;-64
2022/05/31 11:48:17;;;;;;;25.17;15.55;;;;;;;;;;4870879;29;20029;-68
2022/05/31 11:50:57;;;;;;;26.55;16.08;;;;;;;;;;4878137;29;20041;-64
2022/05/31 11:53:26;;;;;;;24.45;14.30;;;;;;;;;;4874369;29;20052;-64
2022/05/31 11:56:00;;;;;;;27.77;15.52;;;;;;;;;;4869847;29;20025;-64
2022/05/31 11:58:29;;;;;;;25.25;13.77;;;;;;;;;;4868209;29;20068;-63
2022/05/31 12:01:00;;;;;;;26.48;14.85;;;;;;;;;;4868902;29;20041;-63
2022/05/31 12:03:35;;;;;;;25.27;13.40;;;;;;;;;;4878425;29;20028;-63
2022/05/31 12:06:21;;;;;;;27.35;14.43;;;;;;;;;;4878012;29;20025;-64
2022/05/31 12:08:52;;;;;;;24.13;13.45;;;;;;;;;;4781911;29;20081;-63
2022/05/31 12:11:22;;;;;;;20.50;12.93;;;;;;;;;;4773257;30;20051;-64
2022/05/31 12:13:49;;;;;;;24.52;13.38;;;;;;;;;;4773839;30;20090;-62
2022/05/31 12:16:16;;;;;;;18.70;12.75;;;;;;;;;;4775302;30;20078;-62
2022/05/31 12:19:02;;;;;;;19.05;11.85;;;;;;;;;;4773611;30;20085;-62
2022/05/31 12:21:34;;;;;;;16.63;10.48;;;;;;;;;;4769749;30;20437;-63
2022/05/31 12:24:18;;;;;;;18.60;11.23;;;;;;;;;;4784294;30;20110;-61
2022/05/31 12:27:01;;;;;;;19.70;11.70;;;;;;;;;;4769323;30;20095;-60
2022/05/31 12:29:27;;;;;;;16.98;10.27;;;;;;;;;;4783726;30;20043;-64
2022/05/31 12:32:14;;;;;;;22.38;10.65;;;;;;;;;;4783698;30;20471;-63
2022/05/31 12:34:41;;;;;;;17.98;11.02;;;;;;;;;;4783949;30;20093;-59
2022/05/31 12:37:09;;;;;;;18.25;10.43;;;;;;;;;;4780960;30;20035;-62
2022/05/31 12:39:36;;;;;;;14.80;9.23;;;;;;;;;;4783959;30;20051;-64
2022/05/31 12:42:11;;;;;;;19.92;10.40;;;;;;;;;;4801652;29;20106;-61
2022/05/31 12:44:37;;;;;;;19.05;11.30;;;;;;;;;;4802121;29;20676;-62
2022/05/31 12:47:22;;;;;;;16.65;10.68;;;;;;;;;;4876799;29;20111;-61
2022/05/31 12:49:51;;;;;;;18.98;10.40;;;;;;;;;;4877925;29;20033;-64
2022/05/31 12:54:56;;;;;;;22.65;10.32;;;;;;;;;;4881340;29;20105;-59
2022/05/31 12:57:25;;;;;;;15.70;9.02;;;;;;;;;;4889542;29;20032;-63
2022/05/31 12:59:53;;;;;;;13.48;7.97;;;;;;;;;;4883455;29;20044;-63
2022/05/31 13:02:28;;;;;;;15.55;9.02;;;;;;;;;;4886552;29;20025;-63
2022/05/31 13:04:57;;;;;;;13.40;8.98;;;;;;;;;;4884795;29;20049;-61
2022/05/31 13:07:39;;;;;;;15.52;9.38;;;;;;;;;;4888351;29;20028;-63
2022/05/31 13:10:24;;;;;;;14.45;8.52;;;;;;;;;;4895773;29;20032;-64
2022/05/31 13:21:10;;;;;;;11.50;6.30;;;;;;;;;;4895393;29;20136;-64
2022/05/31 13:23:38;;;;;;;12.70;6.65;;;;;;;;;;4895105;29;20262;-62
2022/05/31 13:26:13;;;;;;;12.55;7.35;;;;;;;;;;4895478;29;20043;-62
2022/05/31 13:28:41;;;;;;;12.00;7.30;;;;;;;;;;4895603;29;20060;-61
2022/05/31 13:31:15;;;;;;;10.93;6.88;;;;;;;;;;4895678;29;20712;-64
2022/05/31 13:33:41;;;;;;;15.60;9.75;;;;;;;;;;4895388;29;20477;-63
2022/05/31 13:36:20;;;;;;;13.70;9.38;;;;;;;;;;4895722;29;20041;-62
2022/05/31 13:38:47;;;;;;;18.85;9.00;;;;;;;;;;4895515;29;20055;-60
2022/05/31 13:41:15;;;;;;;16.30;9.50;;;;;;;;;;4895658;29;20401;-63
2022/05/31 13:43:51;;;;;;;15.55;8.52;;;;;;;;;;4894857;29;20039;-63
2022/05/31 13:46:23;;;;;;;14.88;10.05;;;;;;;;;;4895376;29;20045;-62
2022/05/31 13:48:51;;;;;;;18.15;10.80;;;;;;;;;;4895213;29;20445;-63
2022/05/31 13:51:23;;;;;;;17.88;10.00;;;;;;;;;;4895387;29;20012;-65
2022/05/31 13:53:49;;;;;;;19.65;9.90;;;;;;;;;;4895373;29;20033;-62
2022/05/31 13:56:17;;;;;;;17.50;9.68;;;;;;;;;;4895317;29;20052;-63
2022/05/31 13:58:43;;;;;;;15.98;9.60;;;;;;;;;;4894980;29;20043;-61
2022/05/31 14:01:33;;;;;;;19.02;10.27;;;;;;;;;;4895186;29;20044;-62
2022/05/31 14:04:04;;;;;;;15.77;10.30;;;;;;;;;;4883050;29;20366;-59
2022/05/31 14:06:32;;;;;;;15.70;9.32;;;;;;;;;;4895014;29;20064;-62
2022/05/31 14:08:58;;;;;;;17.92;9.25;;;;;;;;;;4895080;29;20029;-64
2022/05/31 14:11:24;;;;;;;16.83;9.48;;;;;;;;;;4894573;29;20041;-63
2022/05/31 14:13:51;;;;;;;15.25;9.05;;;;;;;;;;4889299;29;20045;-64
2022/05/31 14:16:19;;;;;;;15.30;9.40;;;;;;;;;;4883871;29;20097;-63
2022/05/31 14:18:53;;;;;;;12.88;8.57;;;;;;;;;;4884187;29;20036;-62
2022/05/31 14:21:20;;;;;;;17.00;9.23;;;;;;;;;;4895608;29;20028;-64
2022/05/31 14:23:46;;;;;;;17.38;8.98;;;;;;;;;;4895373;29;20036;-64
2022/05/31 14:26:13;;;;;;;14.05;9.05;;;;;;;;;;4894517;29;20036;-64
2022/05/31 14:28:59;;;;;;;13.30;8.55;;;;;;;;;;4876525;29;20029;-65
2022/05/31 14:31:25;;;;;;;12.88;8.18;;;;;;;;;;4876099;29;20065;-63
2022/05/31 14:33:51;;;;;;;14.90;8.30;;;;;;;;;;4880096;29;20036;-63
2022/05/31 14:36:29;;;;;;;20.20;9.27;;;;;;;;;;4880068;29;20037;-65
2022/05/31 14:38:56;;;;;;;16.15;8.63;;;;;;;;;;4884119;29;20084;-65
2022/05/31 14:41:31;;;;;;;15.93;10.15;;;;;;;;;;4893404;29;20040;-63
2022/05/31 14:44:00;;;;;;;14.68;8.93;;;;;;;;;;4889108;29;20037;-65
2022/05/31 14:46:37;;;;;;;16.63;9.35;;;;;;;;;;4886425;29;20489;-63
2022/05/31 14:49:09;;;;;;;18.58;10.40;;;;;;;;;;4887247;29;20545;-64
2022/05/31 14:51:37;;;;;;;18.17;9.95;;;;;;;;;;4888781;29;20036;-64
2022/05/31 14:54:04;;;;;;;17.25;9.93;;;;;;;;;;4883571;29;20072;-64
2022/05/31 14:56:33;;;;;;;16.85;10.45;;;;;;;;;;4884191;29;20618;-63
2022/05/31 14:59:03;;;;;;;17.98;9.93;;;;;;;;;;4883504;29;20056;-63
2022/05/31 15:01:43;;;;;;;18.98;10.68;;;;;;;;;;4883511;29;20148;-62
2022/05/31 15:04:15;;;;;;;18.50;10.30;;;;;;;;;;4879621;29;20517;-64
2022/05/31 15:06:41;;;;;;;;;;;;;;;;;;4884245;29;20029;-62
2022/05/31 15:09:13;;;;;;;19.63;11.35;;;;;;;;;;4897283;29;19920;-61